sensor_id;sensor_type;location;lat;lon;timestamp;temperature;humidity
66873;HTU21D;53781;51.090;5.884;2022-11-20T00:00:04;5.89;70.16
66873;HTU21D;53781;51.090;5.884;2022-11-20T00:00:21;5.89;70.14
66873;HTU21D;53781;51.090;5.884;2022-11-20T00:00:36;5.89;70.18
66873;HTU21D;53781;51.090;5.884;2022-11-20T00:00:51;5.87;70.23
66873;HTU21D;53781;51.090;5.884;2022-11-20T00:01:12;5.89;70.23
66873;HTU21D;53781;51.090;5.884;2022-11-20T00:01:27;5.87;70.26
66873;HTU21D;53781;51.090;5.884;2022-11-20T00:01:42;5.89;70.31
66873;HTU21D;53781;51.090;5.884;2022-11-20T00:01:57;5.89;70.26
66873;HTU21D;53781;51.090;5.884;2022-11-20T00:02:12;5.90;70.32
66873;HTU21D;53781;51.090;5.884;2022-11-20T00:02:27;5.89;70.31
66873;HTU21D;53781;51.090;5.884;2022-11-20T00:02:41;5.89;70.42
66873;HTU21D;53781;51.090;5.884;2022-11-20T00:02:56;5.90;70.46
66873;HTU21D;53781;51.090;5.884;2022-11-20T00:03:11;5.89;70.33
66873;HTU21D;53781;51.090;5.884;2022-11-20T00:03:26;5.87;70.40
66873;HTU21D;53781;51.090;5.884;2022-11-20T00:03:41;5.89;70.37
66873;HTU21D;53781;51.090;5.884;2022-11-20T00:03:57;5.91;70.44
66873;HTU21D;53781;51.090;5.884;2022-11-20T00:04:12;5.91;70.40
66873;HTU21D;53781;51.090;5.884;2022-11-20T00:04:27;5.89;70.40
66873;HTU21D;53781;51.090;5.884;2022-11-20T00:04:42;5.90;70.48
66873;HTU21D;53781;51.090;5.884;2022-11-20T00:04:57;5.90;70.45
66873;HTU21D;53781;51.090;5.884;2022-11-20T00:05:12;5.90;70.54
66873;HTU21D;53781;51.090;5.884;2022-11-20T00:05:27;5.92;70.48
66873;HTU21D;53781;51.090;5.884;2022-11-20T00:05:41;5.91;70.46
66873;HTU21D;53781;51.090;5.884;2022-11-20T00:06:03;5.91;70.43
66873;HTU21D;53781;51.090;5.884;2022-11-20T00:06:20;5.89;70.45
66873;HTU21D;53781;51.090;5.884;2022-11-20T00:06:35;5.92;70.42
66873;HTU21D;53781;51.090;5.884;2022-11-20T00:06:50;5.91;70.39
66873;HTU21D;53781;51.090;5.884;2022-11-20T00:07:04;5.92;70.29
66873;HTU21D;53781;51.090;5.884;2022-11-20T00:07:19;5.92;70.22
66873;HTU21D;53781;51.090;5.884;2022-11-20T00:07:34;5.90;70.16
66873;HTU21D;53781;51.090;5.884;2022-11-20T00:07:48;5.90;70.23
66873;HTU21D;53781;51.090;5.884;2022-11-20T00:08:03;5.90;70.19
66873;HTU21D;53781;51.090;5.884;2022-11-20T00:08:18;5.90;70.17
66873;HTU21D;53781;51.090;5.884;2022-11-20T00:08:34;5.89;70.14
66873;HTU21D;53781;51.090;5.884;2022-11-20T00:08:49;5.90;70.15
66873;HTU21D;53781;51.090;5.884;2022-11-20T00:09:04;5.87;70.10
66873;HTU21D;53781;51.090;5.884;2022-11-20T00:09:19;5.90;70.07
66873;HTU21D;53781;51.090;5.884;2022-11-20T00:09:35;5.89;70.13
66873;HTU21D;53781;51.090;5.884;2022-11-20T00:09:49;5.89;70.07
66873;HTU21D;53781;51.090;5.884;2022-11-20T00:10:04;5.89;69.97
66873;HTU21D;53781;51.090;5.884;2022-11-20T00:10:19;5.87;69.99
66873;HTU21D;53781;51.090;5.884;2022-11-20T00:10:40;5.87;70.00
66873;HTU21D;53781;51.090;5.884;2022-11-20T00:10:55;5.89;69.97
66873;HTU21D;53781;51.090;5.884;2022-11-20T00:11:30;5.86;69.92
66873;HTU21D;53781;51.090;5.884;2022-11-20T00:11:45;5.87;69.81
66873;HTU21D;53781;51.090;5.884;2022-11-20T00:12:00;5.86;69.83
66873;HTU21D;53781;51.090;5.884;2022-11-20T00:12:15;5.86;69.89
66873;HTU21D;53781;51.090;5.884;2022-11-20T00:12:31;5.89;69.89
66873;HTU21D;53781;51.090;5.884;2022-11-20T00:12:46;5.86;69.87
66873;HTU21D;53781;51.090;5.884;2022-11-20T00:13:00;5.87;69.80
66873;HTU21D;53781;51.090;5.884;2022-11-20T00:13:15;5.86;69.81
66873;HTU21D;53781;51.090;5.884;2022-11-20T00:13:30;5.85;69.86
66873;HTU21D;53781;51.090;5.884;2022-11-20T00:13:48;5.86;69.78
66873;HTU21D;53781;51.090;5.884;2022-11-20T00:14:03;5.87;69.83
66873;HTU21D;53781;51.090;5.884;2022-11-20T00:14:17;5.84;69.83
66873;HTU21D;53781;51.090;5.884;2022-11-20T00:14:32;5.85;69.78
66873;HTU21D;53781;51.090;5.884;2022-11-20T00:14:47;5.95;69.65
66873;HTU21D;53781;51.090;5.884;2022-11-20T00:15:03;5.91;69.63
66873;HTU21D;53781;51.090;5.884;2022-11-20T00:15:18;5.87;69.65
66873;HTU21D;53781;51.090;5.884;2022-11-20T00:15:33;5.90;69.78
66873;HTU21D;53781;51.090;5.884;2022-11-20T00:15:48;5.90;69.74
66873;HTU21D;53781;51.090;5.884;2022-11-20T00:16:13;5.87;69.78
66873;HTU21D;53781;51.090;5.884;2022-11-20T00:16:31;5.89;69.78
66873;HTU21D;53781;51.090;5.884;2022-11-20T00:16:46;5.86;69.78
66873;HTU21D;53781;51.090;5.884;2022-11-20T00:17:01;5.89;69.68
66873;HTU21D;53781;51.090;5.884;2022-11-20T00:17:15;5.87;69.71
66873;HTU21D;53781;51.090;5.884;2022-11-20T00:17:30;5.87;69.69
66873;HTU21D;53781;51.090;5.884;2022-11-20T00:17:45;5.87;69.71
66873;HTU21D;53781;51.090;5.884;2022-11-20T00:18:00;5.85;69.81
66873;HTU21D;53781;51.090;5.884;2022-11-20T00:18:15;5.87;69.78
66873;HTU21D;53781;51.090;5.884;2022-11-20T00:18:30;5.86;69.79
66873;HTU21D;53781;51.090;5.884;2022-11-20T00:18:47;5.86;69.75
66873;HTU21D;53781;51.090;5.884;2022-11-20T00:19:02;5.87;69.65
66873;HTU21D;53781;51.090;5.884;2022-11-20T00:19:17;5.86;69.68
66873;HTU21D;53781;51.090;5.884;2022-11-20T00:19:31;5.87;69.65
66873;HTU21D;53781;51.090;5.884;2022-11-20T00:19:46;5.85;69.65
66873;HTU21D;53781;51.090;5.884;2022-11-20T00:20:01;5.87;69.68
66873;HTU21D;53781;51.090;5.884;2022-11-20T00:20:16;5.87;69.68
66873;HTU21D;53781;51.090;5.884;2022-11-20T00:20:30;5.86;69.68
66873;HTU21D;53781;51.090;5.884;2022-11-20T00:20:45;5.86;69.65
66873;HTU21D;53781;51.090;5.884;2022-11-20T00:21:09;5.86;69.65
66873;HTU21D;53781;51.090;5.884;2022-11-20T00:21:27;5.89;69.69
66873;HTU21D;53781;51.090;5.884;2022-11-20T00:21:42;5.86;69.72
66873;HTU21D;53781;51.090;5.884;2022-11-20T00:21:56;5.86;69.64
66873;HTU21D;53781;51.090;5.884;2022-11-20T00:22:11;5.86;69.74
66873;HTU21D;53781;51.090;5.884;2022-11-20T00:22:26;5.87;69.69
66873;HTU21D;53781;51.090;5.884;2022-11-20T00:22:41;5.86;69.71
66873;HTU21D;53781;51.090;5.884;2022-11-20T00:22:55;5.87;69.72
66873;HTU21D;53781;51.090;5.884;2022-11-20T00:23:10;5.87;69.79
66873;HTU21D;53781;51.090;5.884;2022-11-20T00:23:25;5.86;69.79
66873;HTU21D;53781;51.090;5.884;2022-11-20T00:23:40;5.86;69.85
66873;HTU21D;53781;51.090;5.884;2022-11-20T00:23:57;5.87;69.81
66873;HTU21D;53781;51.090;5.884;2022-11-20T00:24:11;5.87;69.91
66873;HTU21D;53781;51.090;5.884;2022-11-20T00:24:26;5.87;69.84
66873;HTU21D;53781;51.090;5.884;2022-11-20T00:24:41;5.90;69.93
66873;HTU21D;53781;51.090;5.884;2022-11-20T00:24:56;5.87;69.89
66873;HTU21D;53781;51.090;5.884;2022-11-20T00:25:12;5.89;69.92
66873;HTU21D;53781;51.090;5.884;2022-11-20T00:25:27;5.89;69.93
66873;HTU21D;53781;51.090;5.884;2022-11-20T00:25:45;5.91;69.79
66873;HTU21D;53781;51.090;5.884;2022-11-20T00:26:12;5.90;69.90
66873;HTU21D;53781;51.090;5.884;2022-11-20T00:26:28;5.87;69.90
66873;HTU21D;53781;51.090;5.884;2022-11-20T00:26:43;5.90;69.79
66873;HTU21D;53781;51.090;5.884;2022-11-20T00:26:58;5.90;69.81
66873;HTU21D;53781;51.090;5.884;2022-11-20T00:27:13;5.91;69.85
66873;HTU21D;53781;51.090;5.884;2022-11-20T00:27:28;5.92;69.79
66873;HTU21D;53781;51.090;5.884;2022-11-20T00:27:42;5.90;69.87
66873;HTU21D;53781;51.090;5.884;2022-11-20T00:27:57;5.91;69.77
66873;HTU21D;53781;51.090;5.884;2022-11-20T00:28:12;5.92;69.81
66873;HTU21D;53781;51.090;5.884;2022-11-20T00:28:26;5.92;69.81
66873;HTU21D;53781;51.090;5.884;2022-11-20T00:28:43;5.92;69.83
66873;HTU21D;53781;51.090;5.884;2022-11-20T00:29:00;5.92;69.81
66873;HTU21D;53781;51.090;5.884;2022-11-20T00:29:15;5.92;69.81
66873;HTU21D;53781;51.090;5.884;2022-11-20T00:29:30;5.90;69.85
66873;HTU21D;53781;51.090;5.884;2022-11-20T00:29:45;5.94;69.82
66873;HTU21D;53781;51.090;5.884;2022-11-20T00:29:59;5.92;69.81
66873;HTU21D;53781;51.090;5.884;2022-11-20T00:30:14;5.91;69.81
66873;HTU21D;53781;51.090;5.884;2022-11-20T00:30:29;5.93;69.90
66873;HTU21D;53781;51.090;5.884;2022-11-20T00:30:44;5.95;69.89
66873;HTU21D;53781;51.090;5.884;2022-11-20T00:31:08;5.92;69.90
66873;HTU21D;53781;51.090;5.884;2022-11-20T00:31:23;5.93;69.90
66873;HTU21D;53781;51.090;5.884;2022-11-20T00:31:39;5.93;69.84
66873;HTU21D;53781;51.090;5.884;2022-11-20T00:31:53;5.93;69.81
66873;HTU21D;53781;51.090;5.884;2022-11-20T00:32:08;5.94;69.81
66873;HTU21D;53781;51.090;5.884;2022-11-20T00:32:23;5.94;69.82
66873;HTU21D;53781;51.090;5.884;2022-11-20T00:32:38;5.95;69.83
66873;HTU21D;53781;51.090;5.884;2022-11-20T00:32:52;5.95;69.90
66873;HTU21D;53781;51.090;5.884;2022-11-20T00:33:07;5.94;69.90
66873;HTU21D;53781;51.090;5.884;2022-11-20T00:33:22;5.97;69.83
66873;HTU21D;53781;51.090;5.884;2022-11-20T00:33:37;5.95;69.91
66873;HTU21D;53781;51.090;5.884;2022-11-20T00:33:52;5.96;69.97
66873;HTU21D;53781;51.090;5.884;2022-11-20T00:34:09;5.95;69.94
66873;HTU21D;53781;51.090;5.884;2022-11-20T00:34:24;5.97;69.91
66873;HTU21D;53781;51.090;5.884;2022-11-20T00:34:39;5.95;69.94
66873;HTU21D;53781;51.090;5.884;2022-11-20T00:34:54;5.96;69.85
66873;HTU21D;53781;51.090;5.884;2022-11-20T00:35:08;5.95;69.88
66873;HTU21D;53781;51.090;5.884;2022-11-20T00:35:23;5.97;69.86
66873;HTU21D;53781;51.090;5.884;2022-11-20T00:35:38;5.95;69.84
66873;HTU21D;53781;51.090;5.884;2022-11-20T00:35:53;5.95;69.79
66873;HTU21D;53781;51.090;5.884;2022-11-20T00:36:11;5.96;69.85
66873;HTU21D;53781;51.090;5.884;2022-11-20T00:36:27;5.96;69.84
66873;HTU21D;53781;51.090;5.884;2022-11-20T00:36:42;5.96;69.86
66873;HTU21D;53781;51.090;5.884;2022-11-20T00:36:57;5.97;69.86
66873;HTU21D;53781;51.090;5.884;2022-11-20T00:37:12;5.95;69.75
66873;HTU21D;53781;51.090;5.884;2022-11-20T00:37:27;5.97;69.79
66873;HTU21D;53781;51.090;5.884;2022-11-20T00:37:41;5.95;69.80
66873;HTU21D;53781;51.090;5.884;2022-11-20T00:37:56;5.96;69.78
66873;HTU21D;53781;51.090;5.884;2022-11-20T00:38:11;5.97;69.71
66873;HTU21D;53781;51.090;5.884;2022-11-20T00:38:25;5.96;69.78
66873;HTU21D;53781;51.090;5.884;2022-11-20T00:38:41;5.96;69.72
66873;HTU21D;53781;51.090;5.884;2022-11-20T00:38:57;5.97;69.68
66873;HTU21D;53781;51.090;5.884;2022-11-20T00:39:12;5.96;69.75
66873;HTU21D;53781;51.090;5.884;2022-11-20T00:39:27;5.97;69.73
66873;HTU21D;53781;51.090;5.884;2022-11-20T00:39:42;5.98;69.70
66873;HTU21D;53781;51.090;5.884;2022-11-20T00:39:56;5.96;69.82
66873;HTU21D;53781;51.090;5.884;2022-11-20T00:40:11;5.97;69.84
66873;HTU21D;53781;51.090;5.884;2022-11-20T00:40:26;5.97;69.76
66873;HTU21D;53781;51.090;5.884;2022-11-20T00:40:41;5.96;69.82
66873;HTU21D;53781;51.090;5.884;2022-11-20T00:41:01;5.97;69.78
66873;HTU21D;53781;51.090;5.884;2022-11-20T00:41:16;5.97;69.90
66873;HTU21D;53781;51.090;5.884;2022-11-20T00:41:31;5.96;69.86
66873;HTU21D;53781;51.090;5.884;2022-11-20T00:41:45;5.97;69.89
66873;HTU21D;53781;51.090;5.884;2022-11-20T00:42:00;5.96;69.79
66873;HTU21D;53781;51.090;5.884;2022-11-20T00:42:15;5.95;69.74
66873;HTU21D;53781;51.090;5.884;2022-11-20T00:42:30;5.97;69.81
66873;HTU21D;53781;51.090;5.884;2022-11-20T00:42:47;5.98;69.87
66873;HTU21D;53781;51.090;5.884;2022-11-20T00:43:01;5.98;69.87
66873;HTU21D;53781;51.090;5.884;2022-11-20T00:43:16;5.95;69.90
66873;HTU21D;53781;51.090;5.884;2022-11-20T00:43:31;5.97;69.87
66873;HTU21D;53781;51.090;5.884;2022-11-20T00:43:46;5.95;69.90
66873;HTU21D;53781;51.090;5.884;2022-11-20T00:44:01;5.96;69.95
66873;HTU21D;53781;51.090;5.884;2022-11-20T00:44:15;5.95;69.92
66873;HTU21D;53781;51.090;5.884;2022-11-20T00:44:30;5.95;69.95
66873;HTU21D;53781;51.090;5.884;2022-11-20T00:44:45;5.95;69.98
66873;HTU21D;53781;51.090;5.884;2022-11-20T00:45:00;5.95;70.10
66873;HTU21D;53781;51.090;5.884;2022-11-20T00:45:15;5.95;70.13
66873;HTU21D;53781;51.090;5.884;2022-11-20T00:45:29;5.94;70.16
66873;HTU21D;53781;51.090;5.884;2022-11-20T00:45:44;5.96;70.13
66873;HTU21D;53781;51.090;5.884;2022-11-20T00:46:05;5.95;70.16
66873;HTU21D;53781;51.090;5.884;2022-11-20T00:46:26;5.96;70.19
66873;HTU21D;53781;51.090;5.884;2022-11-20T00:46:41;5.94;70.11
66873;HTU21D;53781;51.090;5.884;2022-11-20T00:46:56;5.95;70.12
66873;HTU21D;53781;51.090;5.884;2022-11-20T00:47:11;5.94;70.14
66873;HTU21D;53781;51.090;5.884;2022-11-20T00:47:25;5.93;70.17
66873;HTU21D;53781;51.090;5.884;2022-11-20T00:47:40;5.93;70.20
66873;HTU21D;53781;51.090;5.884;2022-11-20T00:47:55;5.94;70.27
66873;HTU21D;53781;51.090;5.884;2022-11-20T00:48:10;5.93;70.21
66873;HTU21D;53781;51.090;5.884;2022-11-20T00:48:25;5.92;70.22
66873;HTU21D;53781;51.090;5.884;2022-11-20T00:48:40;5.92;70.23
66873;HTU21D;53781;51.090;5.884;2022-11-20T00:48:55;5.94;70.24
66873;HTU21D;53781;51.090;5.884;2022-11-20T00:49:10;5.92;70.23
66873;HTU21D;53781;51.090;5.884;2022-11-20T00:49:25;5.94;70.27
66873;HTU21D;53781;51.090;5.884;2022-11-20T00:49:40;5.93;70.22
66873;HTU21D;53781;51.090;5.884;2022-11-20T00:49:54;5.93;70.12
66873;HTU21D;53781;51.090;5.884;2022-11-20T00:50:09;5.94;70.16
66873;HTU21D;53781;51.090;5.884;2022-11-20T00:50:24;5.93;70.21
66873;HTU21D;53781;51.090;5.884;2022-11-20T00:50:39;5.93;70.22
66873;HTU21D;53781;51.090;5.884;2022-11-20T00:50:54;5.94;70.16
66873;HTU21D;53781;51.090;5.884;2022-11-20T00:51:09;5.95;70.26
66873;HTU21D;53781;51.090;5.884;2022-11-20T00:51:27;5.93;70.15
66873;HTU21D;53781;51.090;5.884;2022-11-20T00:51:42;5.94;70.12
66873;HTU21D;53781;51.090;5.884;2022-11-20T00:51:56;5.95;70.19
66873;HTU21D;53781;51.090;5.884;2022-11-20T00:52:11;5.93;70.13
66873;HTU21D;53781;51.090;5.884;2022-11-20T00:52:26;5.95;70.19
66873;HTU21D;53781;51.090;5.884;2022-11-20T00:52:41;5.95;70.28
66873;HTU21D;53781;51.090;5.884;2022-11-20T00:52:55;5.94;70.29
66873;HTU21D;53781;51.090;5.884;2022-11-20T00:53:10;5.94;70.26
66873;HTU21D;53781;51.090;5.884;2022-11-20T00:53:25;5.94;70.26
66873;HTU21D;53781;51.090;5.884;2022-11-20T00:53:41;5.93;70.32
66873;HTU21D;53781;51.090;5.884;2022-11-20T00:53:57;5.95;70.40
66873;HTU21D;53781;51.090;5.884;2022-11-20T00:54:12;5.92;70.31
66873;HTU21D;53781;51.090;5.884;2022-11-20T00:54:27;5.94;70.29
66873;HTU21D;53781;51.090;5.884;2022-11-20T00:54:42;5.95;70.37
66873;HTU21D;53781;51.090;5.884;2022-11-20T00:54:57;5.94;70.42
66873;HTU21D;53781;51.090;5.884;2022-11-20T00:55:11;5.94;70.48
66873;HTU21D;53781;51.090;5.884;2022-11-20T00:55:26;5.94;70.55
66873;HTU21D;53781;51.090;5.884;2022-11-20T00:55:41;5.96;70.46
66873;HTU21D;53781;51.090;5.884;2022-11-20T00:55:58;5.95;70.58
66873;HTU21D;53781;51.090;5.884;2022-11-20T00:56:16;5.95;70.48
66873;HTU21D;53781;51.090;5.884;2022-11-20T00:56:31;5.94;70.49
66873;HTU21D;53781;51.090;5.884;2022-11-20T00:56:46;5.95;70.55
66873;HTU21D;53781;51.090;5.884;2022-11-20T00:57:01;5.95;70.52
66873;HTU21D;53781;51.090;5.884;2022-11-20T00:57:16;5.96;70.52
66873;HTU21D;53781;51.090;5.884;2022-11-20T00:57:31;5.95;70.54
66873;HTU21D;53781;51.090;5.884;2022-11-20T00:57:46;5.98;70.55
66873;HTU21D;53781;51.090;5.884;2022-11-20T00:58:00;5.98;70.52
66873;HTU21D;53781;51.090;5.884;2022-11-20T00:58:15;5.96;70.56
66873;HTU21D;53781;51.090;5.884;2022-11-20T00:58:33;5.97;70.60
66873;HTU21D;53781;51.090;5.884;2022-11-20T00:58:48;5.98;70.56
66873;HTU21D;53781;51.090;5.884;2022-11-20T00:59:03;5.99;70.55
66873;HTU21D;53781;51.090;5.884;2022-11-20T00:59:18;5.98;70.61
66873;HTU21D;53781;51.090;5.884;2022-11-20T00:59:33;5.99;70.64
66873;HTU21D;53781;51.090;5.884;2022-11-20T00:59:48;5.98;70.68
66873;HTU21D;53781;51.090;5.884;2022-11-20T01:00:03;5.98;70.62
66873;HTU21D;53781;51.090;5.884;2022-11-20T01:00:18;5.99;70.65
66873;HTU21D;53781;51.090;5.884;2022-11-20T01:00:33;6.00;70.66
66873;HTU21D;53781;51.090;5.884;2022-11-20T01:00:47;5.99;70.69
66873;HTU21D;53781;51.090;5.884;2022-11-20T01:01:24;5.99;70.68
66873;HTU21D;53781;51.090;5.884;2022-11-20T01:01:39;5.99;70.70
66873;HTU21D;53781;51.090;5.884;2022-11-20T01:01:54;5.98;70.63
66873;HTU21D;53781;51.090;5.884;2022-11-20T01:02:09;5.99;70.61
66873;HTU21D;53781;51.090;5.884;2022-11-20T01:02:24;5.98;70.60
66873;HTU21D;53781;51.090;5.884;2022-11-20T01:02:38;5.97;70.58
66873;HTU21D;53781;51.090;5.884;2022-11-20T01:02:55;5.98;70.55
66873;HTU21D;53781;51.090;5.884;2022-11-20T01:03:10;5.98;70.49
66873;HTU21D;53781;51.090;5.884;2022-11-20T01:03:24;5.94;70.50
66873;HTU21D;53781;51.090;5.884;2022-11-20T01:03:42;5.97;70.55
66873;HTU21D;53781;51.090;5.884;2022-11-20T01:03:59;5.97;70.52
66873;HTU21D;53781;51.090;5.884;2022-11-20T01:04:14;5.96;70.51
66873;HTU21D;53781;51.090;5.884;2022-11-20T01:04:29;5.95;70.55
66873;HTU21D;53781;51.090;5.884;2022-11-20T01:04:44;5.93;70.57
66873;HTU21D;53781;51.090;5.884;2022-11-20T01:04:59;5.95;70.55
66873;HTU21D;53781;51.090;5.884;2022-11-20T01:05:13;5.95;70.48
66873;HTU21D;53781;51.090;5.884;2022-11-20T01:05:28;5.95;70.55
66873;HTU21D;53781;51.090;5.884;2022-11-20T01:05:43;5.94;70.52
66873;HTU21D;53781;51.090;5.884;2022-11-20T01:06:03;5.93;70.61
66873;HTU21D;53781;51.090;5.884;2022-11-20T01:06:24;5.94;70.61
66873;HTU21D;53781;51.090;5.884;2022-11-20T01:06:39;5.93;70.64
66873;HTU21D;53781;51.090;5.884;2022-11-20T01:06:54;5.94;70.65
66873;HTU21D;53781;51.090;5.884;2022-11-20T01:07:09;5.94;70.66
66873;HTU21D;53781;51.090;5.884;2022-11-20T01:07:24;5.94;70.74
66873;HTU21D;53781;51.090;5.884;2022-11-20T01:07:38;5.94;70.77
66873;HTU21D;53781;51.090;5.884;2022-11-20T01:07:53;5.94;70.84
66873;HTU21D;53781;51.090;5.884;2022-11-20T01:08:08;5.95;70.85
66873;HTU21D;53781;51.090;5.884;2022-11-20T01:08:22;5.95;70.87
66873;HTU21D;53781;51.090;5.884;2022-11-20T01:08:38;5.93;70.87
66873;HTU21D;53781;51.090;5.884;2022-11-20T01:08:55;5.95;70.82
66873;HTU21D;53781;51.090;5.884;2022-11-20T01:09:14;5.95;70.77
66873;HTU21D;53781;51.090;5.884;2022-11-20T01:09:29;5.93;70.80
66873;HTU21D;53781;51.090;5.884;2022-11-20T01:09:43;5.96;70.75
66873;HTU21D;53781;51.090;5.884;2022-11-20T01:09:58;5.97;70.71
66873;HTU21D;53781;51.090;5.884;2022-11-20T01:10:13;5.96;70.64
66873;HTU21D;53781;51.090;5.884;2022-11-20T01:10:28;5.95;70.64
66873;HTU21D;53781;51.090;5.884;2022-11-20T01:10:43;5.98;70.69
66873;HTU21D;53781;51.090;5.884;2022-11-20T01:11:03;5.96;70.71
66873;HTU21D;53781;51.090;5.884;2022-11-20T01:11:20;5.96;70.65
66873;HTU21D;53781;51.090;5.884;2022-11-20T01:11:38;5.96;70.62
66873;HTU21D;53781;51.090;5.884;2022-11-20T01:11:53;5.97;70.55
66873;HTU21D;53781;51.090;5.884;2022-11-20T01:12:08;5.98;70.58
66873;HTU21D;53781;51.090;5.884;2022-11-20T01:12:23;5.96;70.48
66873;HTU21D;53781;51.090;5.884;2022-11-20T01:12:38;5.96;70.42
66873;HTU21D;53781;51.090;5.884;2022-11-20T01:12:52;5.97;70.34
66873;HTU21D;53781;51.090;5.884;2022-11-20T01:13:28;5.96;70.17
66873;HTU21D;53781;51.090;5.884;2022-11-20T01:13:53;5.95;70.18
66873;HTU21D;53781;51.090;5.884;2022-11-20T01:14:18;5.96;70.10
66873;HTU21D;53781;51.090;5.884;2022-11-20T01:14:32;5.94;70.05
66873;HTU21D;53781;51.090;5.884;2022-11-20T01:14:47;5.94;70.02
66873;HTU21D;53781;51.090;5.884;2022-11-20T01:15:03;5.93;70.03
66873;HTU21D;53781;51.090;5.884;2022-11-20T01:15:17;5.94;70.05
66873;HTU21D;53781;51.090;5.884;2022-11-20T01:15:33;5.93;70.04
66873;HTU21D;53781;51.090;5.884;2022-11-20T01:15:48;5.92;70.00
66873;HTU21D;53781;51.090;5.884;2022-11-20T01:16:07;5.91;70.08
66873;HTU21D;53781;51.090;5.884;2022-11-20T01:16:23;5.91;69.99
66873;HTU21D;53781;51.090;5.884;2022-11-20T01:16:41;5.91;70.05
66873;HTU21D;53781;51.090;5.884;2022-11-20T01:16:56;5.89;70.06
66873;HTU21D;53781;51.090;5.884;2022-11-20T01:17:11;5.90;70.12
66873;HTU21D;53781;51.090;5.884;2022-11-20T01:17:25;5.90;70.13
66873;HTU21D;53781;51.090;5.884;2022-11-20T01:17:40;5.91;70.16
66873;HTU21D;53781;51.090;5.884;2022-11-20T01:17:55;5.89;70.15
66873;HTU21D;53781;51.090;5.884;2022-11-20T01:18:09;5.90;70.15
66873;HTU21D;53781;51.090;5.884;2022-11-20T01:18:24;5.87;70.25
66873;HTU21D;53781;51.090;5.884;2022-11-20T01:18:42;5.87;70.22
66873;HTU21D;53781;51.090;5.884;2022-11-20T01:19:00;5.90;70.22
66873;HTU21D;53781;51.090;5.884;2022-11-20T01:19:17;5.89;70.31
66873;HTU21D;53781;51.090;5.884;2022-11-20T01:19:32;5.89;70.33
66873;HTU21D;53781;51.090;5.884;2022-11-20T01:19:51;5.90;70.31
66873;HTU21D;53781;51.090;5.884;2022-11-20T01:20:06;5.87;70.32
66873;HTU21D;53781;51.090;5.884;2022-11-20T01:20:21;5.89;70.33
66873;HTU21D;53781;51.090;5.884;2022-11-20T01:20:36;5.87;70.35
66873;HTU21D;53781;51.090;5.884;2022-11-20T01:20:51;5.89;70.30
66873;HTU21D;53781;51.090;5.884;2022-11-20T01:21:08;5.86;70.37
66873;HTU21D;53781;51.090;5.884;2022-11-20T01:21:36;5.86;70.34
66873;HTU21D;53781;51.090;5.884;2022-11-20T01:21:53;5.87;70.29
66873;HTU21D;53781;51.090;5.884;2022-11-20T01:22:08;5.87;70.30
66873;HTU21D;53781;51.090;5.884;2022-11-20T01:22:23;5.89;70.36
66873;HTU21D;53781;51.090;5.884;2022-11-20T01:22:37;5.89;70.31
66873;HTU21D;53781;51.090;5.884;2022-11-20T01:22:52;5.87;70.36
66873;HTU21D;53781;51.090;5.884;2022-11-20T01:23:07;5.87;70.39
66873;HTU21D;53781;51.090;5.884;2022-11-20T01:23:21;5.89;70.41
66873;HTU21D;53781;51.090;5.884;2022-11-20T01:23:38;5.89;70.42
66873;HTU21D;53781;51.090;5.884;2022-11-20T01:23:54;5.90;70.42
66873;HTU21D;53781;51.090;5.884;2022-11-20T01:24:12;5.87;70.48
66873;HTU21D;53781;51.090;5.884;2022-11-20T01:24:27;5.87;70.37
66873;HTU21D;53781;51.090;5.884;2022-11-20T01:24:42;5.87;70.37
66873;HTU21D;53781;51.090;5.884;2022-11-20T01:24:57;5.87;70.39
66873;HTU21D;53781;51.090;5.884;2022-11-20T01:25:12;5.87;70.29
66873;HTU21D;53781;51.090;5.884;2022-11-20T01:25:26;5.86;70.34
66873;HTU21D;53781;51.090;5.884;2022-11-20T01:25:41;5.86;70.38
66873;HTU21D;53781;51.090;5.884;2022-11-20T01:25:56;5.85;70.39
66873;HTU21D;53781;51.090;5.884;2022-11-20T01:26:19;5.85;70.47
66873;HTU21D;53781;51.090;5.884;2022-11-20T01:26:36;5.84;70.48
66873;HTU21D;53781;51.090;5.884;2022-11-20T01:26:51;5.84;70.46
66873;HTU21D;53781;51.090;5.884;2022-11-20T01:27:06;5.85;70.53
66873;HTU21D;53781;51.090;5.884;2022-11-20T01:27:21;5.84;70.58
66873;HTU21D;53781;51.090;5.884;2022-11-20T01:27:36;5.83;70.64
66873;HTU21D;53781;51.090;5.884;2022-11-20T01:27:51;5.84;70.57
66873;HTU21D;53781;51.090;5.884;2022-11-20T01:28:05;5.85;70.63
66873;HTU21D;53781;51.090;5.884;2022-11-20T01:28:20;5.83;70.58
66873;HTU21D;53781;51.090;5.884;2022-11-20T01:28:36;5.85;70.65
66873;HTU21D;53781;51.090;5.884;2022-11-20T01:28:51;5.84;70.69
66873;HTU21D;53781;51.090;5.884;2022-11-20T01:29:13;5.83;70.68
66873;HTU21D;53781;51.090;5.884;2022-11-20T01:29:28;5.84;70.71
66873;HTU21D;53781;51.090;5.884;2022-11-20T01:29:43;5.82;70.69
66873;HTU21D;53781;51.090;5.884;2022-11-20T01:29:57;5.83;70.73
66873;HTU21D;53781;51.090;5.884;2022-11-20T01:30:12;5.83;70.72
66873;HTU21D;53781;51.090;5.884;2022-11-20T01:30:28;5.84;70.78
66873;HTU21D;53781;51.090;5.884;2022-11-20T01:30:42;5.83;70.77
66873;HTU21D;53781;51.090;5.884;2022-11-20T01:30:57;5.84;70.86
66873;HTU21D;53781;51.090;5.884;2022-11-20T01:31:30;5.85;70.85
66873;HTU21D;53781;51.090;5.884;2022-11-20T01:31:45;5.85;70.92
66873;HTU21D;53781;51.090;5.884;2022-11-20T01:32:00;5.84;70.93
66873;HTU21D;53781;51.090;5.884;2022-11-20T01:32:15;5.83;70.92
66873;HTU21D;53781;51.090;5.884;2022-11-20T01:32:30;5.82;70.82
66873;HTU21D;53781;51.090;5.884;2022-11-20T01:32:44;5.84;70.87
66873;HTU21D;53781;51.090;5.884;2022-11-20T01:32:59;5.83;70.84
66873;HTU21D;53781;51.090;5.884;2022-11-20T01:33:14;5.83;70.86
66873;HTU21D;53781;51.090;5.884;2022-11-20T01:33:29;5.83;70.85
66873;HTU21D;53781;51.090;5.884;2022-11-20T01:33:45;5.84;70.87
66873;HTU21D;53781;51.090;5.884;2022-11-20T01:34:06;5.83;70.94
66873;HTU21D;53781;51.090;5.884;2022-11-20T01:34:22;5.84;70.91
66873;HTU21D;53781;51.090;5.884;2022-11-20T01:34:37;5.83;70.93
66873;HTU21D;53781;51.090;5.884;2022-11-20T01:34:52;5.83;70.93
66873;HTU21D;53781;51.090;5.884;2022-11-20T01:35:06;5.81;70.93
66873;HTU21D;53781;51.090;5.884;2022-11-20T01:35:21;5.83;70.96
66873;HTU21D;53781;51.090;5.884;2022-11-20T01:35:36;5.83;70.89
66873;HTU21D;53781;51.090;5.884;2022-11-20T01:35:51;5.81;70.88
66873;HTU21D;53781;51.090;5.884;2022-11-20T01:36:07;5.82;70.92
66873;HTU21D;53781;51.090;5.884;2022-11-20T01:36:24;5.80;70.89
66873;HTU21D;53781;51.090;5.884;2022-11-20T01:36:40;5.83;70.85
66873;HTU21D;53781;51.090;5.884;2022-11-20T01:36:55;5.82;70.87
66873;HTU21D;53781;51.090;5.884;2022-11-20T01:37:10;5.82;70.88
66873;HTU21D;53781;51.090;5.884;2022-11-20T01:37:24;5.81;70.86
66873;HTU21D;53781;51.090;5.884;2022-11-20T01:37:39;5.80;70.85
66873;HTU21D;53781;51.090;5.884;2022-11-20T01:37:54;5.80;70.84
66873;HTU21D;53781;51.090;5.884;2022-11-20T01:38:09;5.82;70.90
66873;HTU21D;53781;51.090;5.884;2022-11-20T01:38:23;5.80;70.96
66873;HTU21D;53781;51.090;5.884;2022-11-20T01:38:39;5.80;70.96
66873;HTU21D;53781;51.090;5.884;2022-11-20T01:38:55;5.81;70.93
66873;HTU21D;53781;51.090;5.884;2022-11-20T01:39:16;5.82;71.01
66873;HTU21D;53781;51.090;5.884;2022-11-20T01:39:34;5.80;71.06